Ridgway, IL (62979)

5:43 PM CDT on April 01, 2015 (GMT -0500)
Harrisburg-Raleigh | | Change Station
CLOSE
Current Station
Airport
Location: Harrisburg,
Elevation: 397 ft
Nearby Weather Stations
Active Advisory: Flood Warning

Elev 397 ft 37.81 °N, 88.55 °W | Updated 8 minutes ago

Clear
Clear
72 °F
Feels Like 72 °F
N
10
Wind Variable Wind from SSE

Today
High -- | Low -- °F
--% Chance of Precip.
Yesterday
High -- | Low -- °F
Precip. -- in
6:38 AM 7:15 PM
Waxing Gibbous, 94% visible
Pressure 29.98 in
Visibility 10.0 miles
Clouds Clear
Dew Point 42 °F
Humidity 34%
Rainfall 0.00 in
Snow Depth Not available.
UV 1 out of 12
Pollen 10.30 out of 12
Air Quality Not available.
Flu Activity Not available.
METAR KHSB 012235Z AUTO 16009KT 10SM CLR 22/06 A2998 RMK AO2 T02220055

More Conditions Fewer Conditions

Pressure 29.98 in
Visibility 10.0 miles
Clouds Clear
Dew Point 42 °F
Humidity 34%
Rainfall 0.00 in
Snow Depth Not available.
UV 1 out of 12
Pollen 10.30 out of 12
Air Quality Not available.
Flu Activity Not available.
METAR KHSB 012235Z AUTO 16009KT 10SM CLR 22/06 A2998 RMK AO2 T02220055

More Conditions Fewer Conditions

10-Day Weather Forecast

Almanac

Astronomy

Apr. 01, 2015 Rise Set
Actual Time
Civil Twilight
Nautical Twilight
Astronomical Twilight
Moon
Length of Visible Light
Length of Day
Tomorrow will be .
, % of the Moon is Illuminated

Today's Extremes

State Highs State Lows

Community

WunderPhotos

Upload Photos

1,810,096 photos uploaded!

WunderBlogs® & News

Nearby

Air Quality

  Air Quality AQ Index Pollutant
Not available.

Snow Depth

Station Depth Elevation

Earthquake Activity

City Distance Mag. Time & Date
Minimum magnitude displayed is 2.5.

Coastal Water Temperatures

Place Temperature

Stations

Nearby Weather Stations

Station Location Temp. Windchill Dew Point Humidity Wind Precip. Elev Updated Type
                   
Flood Warning
Statement as of 9:23 AM CDT on April 01, 2015

The Flood Warning continues for
the Little Wabash River at Carmi.
* Until late tonight.
* At 8:30 am Wednesday the stage was 27.4 feet.
* Flood stage is 27.0 feet.
* Minor flooding is occurring and minor flooding is forecast.
* Forecast... the river will continue to fall to below flood stage by
this evening.
* Impact... at 27.0 feet... the inundation of County roads begins.


Lat... Lon 3826 8816 3801 8828 3791 8812 3793 8808
      3804 8813 3825 8802